Windsor Locks, CT (06096)

12:18 PM EST on February 23, 2017 (GMT -0500)
Cricket Road | | Change Station

Elev 164 ft 41.93 °N, 72.60 °W | Updated 2 minutes ago

Partly Cloudy
Partly Cloudy
62.8 °F
Feels Like 62.8 °F
N
4.3
Wind Variable Wind from South
Gusts 9.3 mph

Today
High -- | Low -- °F
--% Chance of Precip.
Yesterday
High -- | Low -- °F
Precip. -- in
Pressure 29.83 in
Visibility 10.0 miles
Clouds Few 8000 ft
Dew Point 49 °F
Humidity 60%
Rainfall Not available.
Snow Depth Not available.
6:34 AM 5:33 PM
Waning Crescent, 9% visible
METAR KBDL 231651Z 18009KT 10SM FEW080 17/07 A2982 RMK AO2 SLP099 T01670067
Pressure 29.83 in
Visibility 10.0 miles
Clouds Few 8000 ft
Dew Point 49 °F
Humidity 60%
Rainfall Not available.
Snow Depth Not available.
6:34 AM 5:33 PM
Waning Crescent, 9% visible
METAR KBDL 231651Z 18009KT 10SM FEW080 17/07 A2982 RMK AO2 SLP099 T01670067

Get Your Daily Forecast Email!

Thanks for signing up!

Be on the lookout for a verification email in your inbox.

You'll start receiving the daily forecast at 8 AM.

×

10-Day Weather Forecast

Almanac

Astronomy

Feb. 23, 2017 Rise Set
Actual Time
Civil Twilight
Nautical Twilight
Astronomical Twilight
Moon
Length of Visible Light
Length of Day
Tomorrow will be .
, % of the Moon is Illuminated

Today's Extremes

State Highs State Lows

Community

WunderPhotos

Upload Photos

1,962,540 photos uploaded!

WunderBlog® & News

Nearby

Air Quality

  Air Quality AQ Index Pollutant
Not available.

Snow Depth

Station Depth Elevation

Earthquake Activity

City Distance Mag. Time & Date
Minimum magnitude displayed is 2.5.

Coastal Water Temperatures

Place Temperature

Stations

Nearby Weather Stations

Station Location Temp. Windchill Dew Point Humidity Wind Precip. Elev Updated Type
                   

Watches & Warnings

There are currently no watches in effect.